createdAt,value
2022-07-30T00:00:32.470Z,98251.30
2022-07-30T00:03:09.614Z,98248.17
2022-07-30T00:05:38.442Z,98243.88
2022-07-30T00:08:07.256Z,98238.11
2022-07-30T00:10:45.128Z,98238.61
2022-07-30T00:13:15.005Z,98241.91
2022-07-30T00:15:44.229Z,98246.77
2022-07-30T00:18:13.310Z,98245.13
2022-07-30T00:20:44.258Z,98245.90
2022-07-30T00:23:13.309Z,98244.85
2022-07-30T00:25:44.342Z,98247.61
2022-07-30T00:28:13.146Z,98251.04
2022-07-30T00:30:41.942Z,98249.14
2022-07-30T00:33:11.257Z,98248.44
2022-07-30T00:35:40.880Z,98239.64
2022-07-30T00:38:09.597Z,98239.30
2022-07-30T00:40:40.187Z,98240.66
2022-07-30T00:43:13.757Z,98234.20
2022-07-30T00:45:43.151Z,98230.30
2022-07-30T00:48:14.419Z,98222.45
2022-07-30T00:50:43.464Z,98221.08
2022-07-30T00:53:14.680Z,98215.98
2022-07-30T00:55:43.794Z,98216.20
2022-07-30T00:58:12.950Z,98209.46
2022-07-30T01:00:47.486Z,98206.69
2022-07-30T01:03:16.365Z,98205.48
2022-07-30T01:05:45.404Z,98202.64
2022-07-30T01:08:14.460Z,98197.23
2022-07-30T01:10:43.889Z,98195.71
2022-07-30T01:13:13.567Z,98191.19
2022-07-30T01:15:42.445Z,98190.81
2022-07-30T01:18:14.293Z,98185.34
2022-07-30T01:20:50.010Z,98186.77
2022-07-30T01:23:26.013Z,98177.65
2022-07-30T01:26:00.699Z,98176.45
2022-07-30T01:28:35.318Z,98172.32
2022-07-30T01:31:05.765Z,98169.50
2022-07-30T01:33:39.074Z,98164.78
2022-07-30T01:36:10.518Z,98163.09
2022-07-30T01:38:41.521Z,98167.51
2022-07-30T01:41:11.082Z,98163.39
2022-07-30T01:43:41.495Z,98159.67
2022-07-30T01:46:12.068Z,98151.17
2022-07-30T01:48:40.955Z,98148.48
2022-07-30T01:51:13.918Z,98150.57
2022-07-30T01:53:50.446Z,98148.36
2022-07-30T01:56:25.100Z,98148.95
2022-07-30T01:58:58.654Z,98146.67
2022-07-30T02:01:29.136Z,98141.59
2022-07-30T02:04:04.531Z,98133.66
2022-07-30T02:06:40.536Z,98133.76
2022-07-30T02:09:15.038Z,98133.13
2022-07-30T02:12:07.884Z,98131.27
2022-07-30T02:14:45.466Z,98133.37
2022-07-30T02:17:22.888Z,98137.04
2022-07-30T02:20:00.647Z,98142.45
2022-07-30T02:22:36.756Z,98136.30
2022-07-30T02:25:09.968Z,98130.06
2022-07-30T02:27:43.259Z,98138.98
2022-07-30T02:30:15.220Z,98134.77
2022-07-30T02:32:47.119Z,98125.56
2022-07-30T02:35:20.090Z,98116.08
2022-07-30T02:37:53.121Z,98117.26
2022-07-30T02:40:23.285Z,98111.07
2022-07-30T02:42:56.662Z,98107.13
2022-07-30T02:45:29.215Z,98107.62
2022-07-30T02:48:01.087Z,98112.56
2022-07-30T02:50:30.704Z,98115.71
2022-07-30T02:53:02.783Z,98118.94
2022-07-30T02:55:34.964Z,98120.86
2022-07-30T02:58:06.594Z,98121.19
2022-07-30T03:00:38.636Z,98122.98
2022-07-30T03:03:08.720Z,98125.91
2022-07-30T03:05:41.210Z,98126.28
2022-07-30T03:08:11.280Z,98122.60
2022-07-30T03:10:43.921Z,98127.17
2022-07-30T03:13:14.629Z,98130.92
2022-07-30T03:15:48.302Z,98130.06
2022-07-30T03:18:20.280Z,98127.18
2022-07-30T03:20:53.534Z,98123.17
2022-07-30T03:23:24.070Z,98123.09
2022-07-30T03:25:57.986Z,98122.00
2022-07-30T03:28:28.103Z,98120.46
2022-07-30T03:30:57.203Z,98123.19
2022-07-30T03:33:38.150Z,98124.18
2022-07-30T03:36:12.630Z,98123.48
2022-07-30T03:38:43.767Z,98122.86
2022-07-30T03:41:13.704Z,98127.95
2022-07-30T03:43:43.871Z,98130.67
2022-07-30T03:46:13.428Z,98129.77
2022-07-30T03:48:46.118Z,98128.95
2022-07-30T03:51:16.405Z,98127.86
2022-07-30T03:53:47.091Z,98126.73
2022-07-30T03:56:48.565Z,98127.27
2022-07-30T03:59:35.017Z,98128.71
2022-07-30T04:02:06.928Z,98129.78
2022-07-30T04:05:02.520Z,98123.80
2022-07-30T04:07:31.537Z,98118.98
2022-07-30T04:10:00.359Z,98122.10
2022-07-30T04:12:39.326Z,98116.08
2022-07-30T04:16:38.873Z,98114.95
2022-07-30T04:18:04.392Z,98108.80
2022-07-30T04:20:42.487Z,98106.52
2022-07-30T04:23:12.369Z,98104.34
2022-07-30T04:25:43.466Z,98109.41
2022-07-30T04:28:13.775Z,98114.24
2022-07-30T04:30:42.691Z,98112.22
2022-07-30T04:33:11.624Z,98117.06
2022-07-30T04:35:51.002Z,98118.73
2022-07-30T04:38:34.887Z,98127.34
2022-07-30T04:41:03.805Z,98130.55
2022-07-30T04:43:41.668Z,98130.74
2022-07-30T04:46:10.782Z,98129.45
2022-07-30T04:48:40.050Z,98123.55
2022-07-30T04:51:18.709Z,98120.73
2022-07-30T04:53:48.896Z,98122.58
2022-07-30T04:56:20.645Z,98120.64
2022-07-30T04:58:52.983Z,98119.16
2022-07-30T05:01:34.026Z,98123.06
2022-07-30T05:04:12.103Z,98128.81
2022-07-30T05:06:41.702Z,98131.75
2022-07-30T05:09:11.798Z,98137.54
2022-07-30T05:11:40.626Z,98132.14
2022-07-30T05:14:09.618Z,98125.06
2022-07-30T05:16:39.049Z,98124.00
2022-07-30T05:19:08.771Z,98124.84
2022-07-30T05:21:38.199Z,98118.51
2022-07-30T05:24:08.092Z,98124.91
2022-07-30T05:26:40.264Z,98129.33
2022-07-30T05:29:18.057Z,98132.11
2022-07-30T05:31:53.125Z,98135.27
2022-07-30T05:34:22.375Z,98130.02
2022-07-30T05:36:54.500Z,98125.38
2022-07-30T05:39:24.360Z,98118.85
2022-07-30T05:42:31.554Z,98116.87
2022-07-30T05:45:01.213Z,98113.04
2022-07-30T05:47:30.118Z,98113.59
2022-07-30T05:50:04.221Z,98116.34
2022-07-30T05:52:34.269Z,98121.06
2022-07-30T05:55:10.933Z,98125.53
2022-07-30T05:58:02.861Z,98120.69
2022-07-30T06:00:34.917Z,98118.98
2022-07-30T06:03:04.310Z,98118.89
2022-07-30T06:06:02.360Z,98116.27
2022-07-30T06:08:31.342Z,98114.88
2022-07-30T06:11:00.680Z,98115.36
2022-07-30T06:13:30.211Z,98114.96
2022-07-30T06:16:00.390Z,98108.67
2022-07-30T06:18:29.308Z,98106.30
2022-07-30T06:20:59.224Z,98104.23
2022-07-30T06:23:34.695Z,98104.59
2022-07-30T06:26:26.556Z,98106.62
2022-07-30T06:28:55.312Z,98107.56
2022-07-30T06:31:32.682Z,98113.30
2022-07-30T06:34:02.071Z,98107.88
2022-07-30T06:36:34.853Z,98107.76
2022-07-30T06:39:07.381Z,98107.35
2022-07-30T06:41:54.809Z,98107.56
2022-07-30T06:44:23.608Z,98109.46
2022-07-30T06:47:11.900Z,98102.48
2022-07-30T06:49:41.159Z,98102.21
2022-07-30T06:52:16.964Z,98096.79
2022-07-30T06:54:50.509Z,98096.09
2022-07-30T06:57:28.698Z,98090.29
2022-07-30T06:59:59.439Z,98085.86
2022-07-30T07:02:38.784Z,98085.81
2022-07-30T07:05:15.645Z,98083.08
2022-07-30T07:07:58.179Z,98077.48
2022-07-30T07:10:41.708Z,98074.44
2022-07-30T07:13:24.413Z,98074.17
2022-07-30T07:15:54.140Z,98075.45
2022-07-30T07:18:24.762Z,98077.14
2022-07-30T07:21:00.494Z,98066.92
2022-07-30T07:23:39.768Z,98065.60
2022-07-30T07:26:16.075Z,98066.88
2022-07-30T07:28:45.030Z,98067.14
2022-07-30T07:32:05.787Z,98070.75
2022-07-30T07:34:06.002Z,98068.35
2022-07-30T07:36:35.916Z,98063.46
2022-07-30T07:39:09.319Z,98059.65
2022-07-30T07:41:48.496Z,98059.27
2022-07-30T07:44:20.931Z,98055.04
2022-07-30T07:46:50.063Z,98051.54
2022-07-30T07:49:18.915Z,98047.46
2022-07-30T07:51:56.875Z,98044.16
2022-07-30T07:54:25.940Z,98044.25
2022-07-30T07:56:55.997Z,98047.08
2022-07-30T07:59:40.155Z,98047.05
2022-07-30T08:02:19.928Z,98046.80
2022-07-30T08:05:12.055Z,98050.21
2022-07-30T08:07:50.469Z,98049.23
2022-07-30T08:10:38.121Z,98049.41
2022-07-30T08:13:51.791Z,98045.45
2022-07-30T08:16:25.733Z,98047.49
2022-07-30T08:19:24.643Z,98048.40
2022-07-30T08:22:16.316Z,98043.35
2022-07-30T08:24:45.499Z,98039.48
2022-07-30T08:27:14.497Z,98037.15
2022-07-30T08:29:44.767Z,98042.53
2022-07-30T08:32:13.615Z,98037.27
2022-07-30T08:34:42.570Z,98035.23
2022-07-30T08:37:11.461Z,98027.58
2022-07-30T08:39:43.393Z,98025.64
2022-07-30T08:42:14.403Z,98025.95
2022-07-30T08:44:45.837Z,98023.59
2022-07-30T08:47:18.978Z,98021.15
2022-07-30T08:50:19.516Z,98020.77
2022-07-30T09:43:49.168Z,97974.66
2022-07-30T09:46:42.262Z,97976.12
2022-07-30T09:49:29.908Z,97973.31
2022-07-30T09:51:59.501Z,97970.49
2022-07-30T09:54:51.092Z,97967.16
2022-07-30T09:57:27.546Z,97967.65
2022-07-30T10:00:23.680Z,97960.59
2022-07-30T10:03:21.579Z,97965.59
2022-07-30T10:06:34.179Z,97963.63
2022-07-30T10:09:14.311Z,97960.28
2022-07-30T10:11:48.369Z,97954.48
2022-07-30T10:14:30.890Z,97949.94
2022-07-30T10:17:05.512Z,97954.23
2022-07-30T10:19:40.203Z,97950.21
2022-07-30T10:22:30.009Z,97946.18
2022-07-30T10:25:20.743Z,97945.85
2022-07-30T10:28:11.587Z,97951.36
2022-07-30T10:30:41.742Z,97949.55
2022-07-30T10:33:35.021Z,97950.33
2022-07-30T10:36:08.827Z,97948.67
2022-07-30T10:38:41.853Z,97952.77
2022-07-30T10:41:44.389Z,97951.96
2022-07-30T10:44:41.569Z,97941.04
2022-07-30T10:47:14.305Z,97937.74
2022-07-30T10:50:07.389Z,97940.14
2022-07-30T10:52:49.999Z,97940.33
2022-07-30T10:55:37.128Z,97939.06
2022-07-30T10:58:10.475Z,97937.98
2022-07-30T11:00:59.659Z,97938.02
2022-07-30T11:03:41.217Z,97940.41
2022-07-30T11:06:27.944Z,97932.70
2022-07-30T11:08:57.257Z,97930.19
2022-07-30T11:12:02.058Z,97936.70
2022-07-30T11:15:06.804Z,97929.27
2022-07-30T11:18:02.608Z,97923.41
2022-07-30T11:20:35.046Z,97921.20
2022-07-30T11:23:14.225Z,97915.64
2022-07-30T11:25:51.485Z,97915.91
2022-07-30T11:28:39.383Z,97916.41
2022-07-30T11:31:37.007Z,97914.42
2022-07-30T11:34:31.904Z,97919.45
2022-07-30T11:37:18.796Z,97921.11
2022-07-30T11:40:14.147Z,97916.67
2022-07-30T11:42:44.324Z,97920.26
2022-07-30T11:45:32.149Z,97921.98
2022-07-30T11:48:01.370Z,97924.26
2022-07-30T11:50:32.867Z,97923.66
2022-07-30T11:53:03.192Z,97923.77
2022-07-30T11:55:34.492Z,97920.09
2022-07-30T11:58:05.609Z,97914.02
2022-07-30T12:00:39.998Z,97916.02
2022-07-30T12:03:10.850Z,97913.45
2022-07-30T12:05:40.264Z,97907.13
2022-07-30T12:08:35.271Z,97905.83
2022-07-30T12:11:00.589Z,97908.90
2022-07-30T12:13:43.470Z,97911.98
2022-07-30T12:16:16.413Z,97906.49
2022-07-30T12:18:46.871Z,97899.83
2022-07-30T12:21:15.648Z,97896.85
2022-07-30T12:23:53.365Z,97890.80
2022-07-30T12:26:26.689Z,97889.58
2022-07-30T12:28:57.744Z,97888.61
2022-07-30T12:31:27.046Z,97886.57
2022-07-30T12:33:56.136Z,97895.66
2022-07-30T12:36:30.162Z,97891.13
2022-07-30T12:39:02.082Z,97896.91
2022-07-30T12:41:45.578Z,97900.77
2022-07-30T12:44:35.014Z,97908.54
2022-07-30T12:47:05.093Z,97913.52
2022-07-30T12:49:37.780Z,97928.84
2022-07-30T12:52:27.675Z,97941.15
2022-07-30T12:55:02.227Z,97949.21
2022-07-30T12:57:57.915Z,97950.41
2022-07-30T13:00:29.803Z,97933.34
2022-07-30T13:02:59.469Z,97928.23
2022-07-30T13:05:51.323Z,97933.25
2022-07-30T13:08:56.284Z,97944.81
2022-07-30T13:11:37.209Z,97948.33
2022-07-30T13:14:06.515Z,97943.68
2022-07-30T13:16:36.546Z,97940.21
2022-07-30T13:19:06.632Z,97942.07
2022-07-30T13:21:35.736Z,97949.23
2022-07-30T13:24:05.777Z,97948.86
2022-07-30T13:26:39.269Z,97940.86
2022-07-30T13:29:08.824Z,97938.63
2022-07-30T13:31:42.767Z,97941.29
2022-07-30T13:34:12.642Z,97937.77
2022-07-30T13:36:42.463Z,97938.98
2022-07-30T13:39:11.937Z,97940.88
2022-07-30T13:41:41.441Z,97939.83
2022-07-30T13:44:10.332Z,97945.09
2022-07-30T13:46:41.298Z,97942.97
2022-07-30T13:49:10.643Z,97943.91
2022-07-30T13:51:39.752Z,97941.19
2022-07-30T13:54:08.530Z,97940.25
2022-07-30T13:56:41.345Z,97937.41
2022-07-30T13:59:10.071Z,97941.14
2022-07-30T14:01:38.937Z,97944.90
2022-07-30T14:04:08.010Z,97943.08
2022-07-30T14:06:37.186Z,97945.23
2022-07-30T14:09:05.973Z,97943.81
2022-07-30T14:11:35.405Z,97942.05
2022-07-30T14:14:04.294Z,97940.38
2022-07-30T14:16:45.115Z,97938.26
2022-07-30T14:19:22.959Z,97937.02
2022-07-30T14:21:53.821Z,97935.31
2022-07-30T14:24:23.340Z,97934.58
2022-07-30T14:26:57.797Z,97933.84
2022-07-30T14:29:28.362Z,97932.22
2022-07-30T14:31:57.582Z,97927.86
2022-07-30T14:34:26.313Z,97925.25
2022-07-30T14:36:55.340Z,97920.15
2022-07-30T14:39:24.427Z,97917.34
2022-07-30T14:41:55.503Z,97912.82
2022-07-30T14:44:25.007Z,97909.09
2022-07-30T14:46:53.874Z,97911.09
2022-07-30T14:49:24.055Z,97906.92
2022-07-30T14:51:52.311Z,97906.22
2022-07-30T14:54:21.812Z,97901.67
2022-07-30T14:56:56.157Z,97898.13
2022-07-30T14:59:27.301Z,97897.91
2022-07-30T15:01:56.862Z,97898.23
2022-07-30T15:04:25.850Z,97890.64
2022-07-30T15:06:54.640Z,97891.45
2022-07-30T15:09:26.277Z,97893.33
2022-07-30T15:12:10.458Z,97889.73
2022-07-30T15:14:41.116Z,97884.53
2022-07-30T15:17:09.962Z,97885.98
2022-07-30T15:19:49.428Z,97885.11
2022-07-30T15:22:19.915Z,97897.69
2022-07-30T15:24:49.109Z,97889.96
2022-07-30T15:27:17.816Z,97893.75
2022-07-30T15:29:46.789Z,97893.36
2022-07-30T15:32:16.515Z,97888.48
2022-07-30T15:34:46.399Z,97892.60
2022-07-30T15:37:15.317Z,97890.00
2022-07-30T15:39:44.159Z,97886.80
2022-07-30T15:42:15.316Z,97885.17
2022-07-30T15:44:48.700Z,97884.86
2022-07-30T15:47:18.120Z,97883.08
2022-07-30T15:49:46.922Z,97880.04
2022-07-30T15:52:15.667Z,97884.45
2022-07-30T15:54:44.480Z,97884.72
2022-07-30T15:57:13.362Z,97884.93
2022-07-30T15:59:42.084Z,97879.35
2022-07-30T16:02:11.006Z,97878.02
2022-07-30T16:04:39.743Z,97876.64
2022-07-30T16:07:10.017Z,97869.01
2022-07-30T16:09:39.279Z,97870.44
2022-07-30T16:12:08.273Z,97870.45
2022-07-30T16:14:37.208Z,97870.42
2022-07-30T16:17:09.381Z,97870.83
2022-07-30T16:19:41.334Z,97871.36
2022-07-30T16:22:15.594Z,97863.83
2022-07-30T16:24:52.868Z,97864.37
2022-07-30T16:27:21.815Z,97865.61
2022-07-30T16:29:50.593Z,97870.67
2022-07-30T16:32:19.488Z,97867.25
2022-07-30T16:34:49.192Z,97868.34
2022-07-30T16:37:18.590Z,97871.45
2022-07-30T16:39:47.708Z,97867.44
2022-07-30T16:42:16.586Z,97868.92
2022-07-30T16:44:45.364Z,97868.13
2022-07-30T16:47:14.206Z,97865.61
2022-07-30T16:49:43.058Z,97869.70
2022-07-30T16:52:11.888Z,97871.62
2022-07-30T16:54:40.739Z,97869.23
2022-07-30T16:57:10.583Z,97870.37
2022-07-30T16:59:42.259Z,97875.27
2022-07-30T17:02:12.878Z,97874.37
2022-07-30T17:04:41.866Z,97870.06
2022-07-30T17:07:10.760Z,97870.27
2022-07-30T17:09:42.881Z,97873.17
2022-07-30T17:12:19.832Z,97871.59
2022-07-30T17:14:54.558Z,97874.74
2022-07-30T17:17:23.421Z,97874.39
2022-07-30T17:19:52.714Z,97880.36
2022-07-30T17:22:21.730Z,97874.48
2022-07-30T17:24:50.484Z,97882.60
2022-07-30T17:27:22.261Z,97878.11
2022-07-30T17:29:51.570Z,97876.63
2022-07-30T17:32:21.659Z,97875.60
2022-07-30T17:34:50.605Z,97876.61
2022-07-30T17:37:19.586Z,97878.46
2022-07-30T17:40:22.979Z,97877.96
2022-07-30T17:42:43.209Z,97877.48
2022-07-30T17:45:13.126Z,97874.59
2022-07-30T17:47:43.096Z,97874.77
2022-07-30T17:50:14.087Z,97873.99
2022-07-30T17:52:43.728Z,97874.30
2022-07-30T17:55:13.619Z,97872.85
2022-07-30T17:57:42.503Z,97872.31
2022-07-30T18:00:15.607Z,97864.95
2022-07-30T18:02:44.660Z,97863.62
2022-07-30T18:05:14.857Z,97863.65
2022-07-30T18:07:44.791Z,97866.60
2022-07-30T18:10:14.041Z,97869.25
2022-07-30T18:12:48.856Z,97868.83
2022-07-30T18:15:18.794Z,97865.43
2022-07-30T18:17:47.798Z,97864.73
2022-07-30T18:20:17.992Z,97861.92
2022-07-30T18:22:46.437Z,97861.26
2022-07-30T18:25:20.674Z,97864.48
2022-07-30T18:27:52.332Z,97867.77
2022-07-30T18:30:21.560Z,97870.99
2022-07-30T18:32:50.668Z,97864.09
2022-07-30T18:35:19.660Z,97863.52
2022-07-30T18:37:48.945Z,97861.79
2022-07-30T18:40:23.476Z,97861.52
2022-07-30T18:42:55.023Z,97855.42
2022-07-30T18:45:24.911Z,97856.63
2022-07-30T18:47:54.673Z,97858.88
2022-07-30T18:50:25.039Z,97863.25
2022-07-30T18:52:55.901Z,97862.65
2022-07-30T18:55:24.690Z,97862.44
2022-07-30T18:57:53.749Z,97864.48
2022-07-30T19:00:34.823Z,97865.42
2022-07-30T19:03:11.193Z,97866.29
2022-07-30T19:05:44.731Z,97871.05
2022-07-30T19:08:15.077Z,97869.56
2022-07-30T19:10:43.947Z,97870.46
2022-07-30T19:13:13.157Z,97870.68
2022-07-30T19:15:42.465Z,97866.11
2022-07-30T19:18:11.803Z,97863.09
2022-07-30T19:20:41.051Z,97864.08
2022-07-30T19:23:11.549Z,97862.42
2022-07-30T19:25:43.063Z,97860.94
2022-07-30T19:28:14.764Z,97858.66
2022-07-30T19:30:44.171Z,97862.46
2022-07-30T19:33:15.494Z,97856.73
2022-07-30T19:35:47.368Z,97855.02
2022-07-30T19:38:23.770Z,97848.09
2022-07-30T19:40:54.249Z,97850.52
2022-07-30T19:43:23.900Z,97850.21
2022-07-30T19:45:53.743Z,97850.00
2022-07-30T19:48:32.381Z,97844.38
2022-07-30T19:51:01.785Z,97845.16
2022-07-30T19:53:33.994Z,97840.69
2022-07-30T19:56:08.356Z,97841.88
2022-07-30T19:58:40.230Z,97833.79
2022-07-30T20:01:11.042Z,97830.35
2022-07-30T20:03:40.523Z,97825.30
2022-07-30T20:06:14.583Z,97826.75
2022-07-30T20:08:44.873Z,97822.66
2022-07-30T20:11:35.875Z,97823.33
2022-07-30T20:14:05.807Z,97816.66
2022-07-30T20:16:35.250Z,97814.93
2022-07-30T20:19:04.459Z,97811.13
2022-07-30T20:21:56.301Z,97809.27
2022-07-30T20:24:23.103Z,97808.42
2022-07-30T20:26:54.649Z,97805.98
2022-07-30T20:29:25.099Z,97805.65
2022-07-30T20:31:54.638Z,97801.84
2022-07-30T20:34:23.906Z,97806.36
2022-07-30T20:36:56.492Z,97806.58
2022-07-30T20:39:27.551Z,97809.67
2022-07-30T20:42:07.827Z,97806.98
2022-07-30T20:44:38.508Z,97807.31
2022-07-30T20:47:08.301Z,97798.35
2022-07-30T20:49:38.646Z,97802.14
2022-07-30T20:52:10.931Z,97805.77
2022-07-30T20:54:45.043Z,97802.98
2022-07-30T21:00:04.378Z,97802.15
2022-07-30T21:02:37.132Z,97798.73
2022-07-30T21:05:08.329Z,97799.71
2022-07-30T21:07:42.939Z,97796.83
2022-07-30T21:10:13.521Z,97793.52
2022-07-30T21:12:44.751Z,97793.42
2022-07-30T21:15:23.487Z,97794.83
2022-07-30T21:17:54.054Z,97790.69
2022-07-30T21:20:28.115Z,97792.96
2022-07-30T21:23:02.190Z,97793.58
2022-07-30T21:25:33.529Z,97792.04
2022-07-30T21:28:03.263Z,97788.81
2022-07-30T21:30:33.883Z,97788.35
2022-07-30T21:33:03.769Z,97785.02
2022-07-30T21:35:32.912Z,97785.00
2022-07-30T21:38:04.808Z,97786.40
2022-07-30T21:40:41.493Z,97782.27
2022-07-30T21:43:12.398Z,97780.24
2022-07-30T21:45:40.426Z,97778.23
2022-07-30T21:48:12.262Z,97781.54
2022-07-30T21:50:41.318Z,97776.63
2022-07-30T21:53:10.168Z,97778.52
2022-07-30T21:55:52.758Z,97776.58
2022-07-30T21:58:25.124Z,97779.76
2022-07-30T22:01:17.545Z,97776.98
2022-07-30T22:04:04.538Z,97775.95
2022-07-30T22:06:38.550Z,97774.41
2022-07-30T22:09:19.640Z,97777.88
2022-07-30T22:12:00.691Z,97775.48
2022-07-30T22:14:31.518Z,97774.95
2022-07-30T22:17:00.401Z,97773.89
2022-07-30T22:19:29.683Z,97772.73
2022-07-30T22:21:58.744Z,97768.67
2022-07-30T22:24:33.253Z,97761.77
2022-07-30T22:27:12.525Z,97757.33
2022-07-30T22:29:47.375Z,97754.60
2022-07-30T22:32:16.485Z,97749.59
2022-07-30T22:34:45.621Z,97752.46
2022-07-30T22:37:17.315Z,97749.21
2022-07-30T22:39:48.664Z,97747.58
2022-07-30T22:42:23.910Z,97745.25
2022-07-30T22:44:54.896Z,97743.71
2022-07-30T22:52:28.695Z,97736.09
2022-07-30T22:55:04.639Z,97734.57
2022-07-30T22:57:40.138Z,97733.03
2022-07-30T23:00:12.775Z,97731.38
2022-07-30T23:02:44.005Z,97726.68
2022-07-30T23:05:15.470Z,97722.29
2022-07-30T23:07:45.136Z,97719.00
2022-07-30T23:10:20.606Z,97715.48
2022-07-30T23:12:26.541Z,97805.91
2022-07-30T23:12:53.487Z,97717.34
2022-07-30T23:15:25.228Z,97711.18
2022-07-30T23:17:54.452Z,97708.20
2022-07-30T23:20:24.152Z,97710.09
2022-07-30T23:22:53.325Z,97708.40
2022-07-30T23:25:22.654Z,97705.37
2022-07-30T23:27:51.672Z,97706.80
2022-07-30T23:30:20.514Z,97712.40
2022-07-30T23:32:49.378Z,97708.10
2022-07-30T23:35:18.299Z,97704.09
2022-07-30T23:37:48.021Z,97705.52
2022-07-30T23:40:19.065Z,97702.57
2022-07-30T23:42:50.302Z,97697.77
2022-07-30T23:45:19.393Z,97696.38
2022-07-30T23:48:01.875Z,97698.98
2022-07-30T23:50:33.211Z,97698.50
2022-07-30T23:53:03.056Z,97695.05
2022-07-30T23:55:33.091Z,97692.10
2022-07-30T23:58:01.920Z,97691.15
